Flight Track Log - Related Links

Times and Time Zones

All times are in EDT time to prevent confusion due to time zone crossing. See the GLA316 flight status page for this flight to view local times or setup timezone preferences in your user account.

Time Position Orientation Groundspeed Altitude Reporting Facility
EDT Latitude Longitude Course Direction KTS MPH feet Rate Location/Type
Wed 02:11:30 PM 44.4972 -98.1428 37° Northeast 177 204 6,700  Level Minneapolis Center
Wed 02:12:00 PM 44.4539 -97.6528 80° East  Level Estimated
Wed 02:12:32 PM 44.5281 -98.0847 53° Northeast 183 211 8,600  Level Minneapolis Center
Wed 02:13:00 PM 44.4651 -97.5567 81° East  Level Estimated
Wed 02:13:34 PM 44.5567 -98.0239 57° Northeast 187 215 10,300  Level Minneapolis Center
Wed 02:14:00 PM 44.4762 -97.4605 81° East  Level Estimated
Wed 02:14:36 PM 44.5881 -97.9644 53° Northeast 189 217 12,200  Level Minneapolis Center
Wed 02:15:00 PM 44.4872 -97.3644 81° East  Level Estimated
Wed 02:15:38 PM 44.6189 -97.9000 56° Northeast 196 226 14,100  Level Minneapolis Center
Wed 02:16:41 PM 44.6544 -97.8153 59° Northeast 207 238 15,600 1,344 Climbing Minneapolis Center
Wed 02:17:43 PM 44.6861 -97.7378 60° Northeast 222 255 16,900 1,210 Climbing Minneapolis Center
Wed 02:18:45 PM 44.7219 -97.6608 57° Northeast 231 266 18,100 1,065 Climbing Minneapolis Center
Wed 02:19:47 PM 44.7608 -97.5878 53° Northeast 232 267 19,100 871 Climbing Minneapolis Center
Wed 02:20:49 PM 44.7969 -97.5169 54° Northeast 227 261 19,900 823 Climbing Minneapolis Center
Wed 02:21:51 PM 44.8353 -97.4442 53° Northeast 227 261 20,800 871 Climbing Minneapolis Center
Wed 02:22:53 PM 44.8850 -97.3589 51° Northeast 234 269 21,700 871 Climbing Minneapolis Center
Wed 02:23:55 PM 44.9261 -97.2825 53° Northeast 242 278 22,600 581 Climbing Minneapolis Center
Wed 02:24:57 PM 44.9689 -97.2067 51° Northeast 246 283 22,900 242 Climbing Minneapolis Center
Wed 02:25:59 PM 45.0172 -97.1242 50° Northeast 266 306 23,100 48 Climbing Minneapolis Center
Wed 02:27:01 PM 45.0669 -97.0367 51° Northeast 281 323 23,000 -48 Descending Minneapolis Center
Wed 02:28:03 PM 45.1117 -96.9414 56° Northeast 290 334 23,000 -48 Level Minneapolis Center
Wed 02:29:05 PM 45.1511 -96.8417 61° Northeast 291 335 22,900 48 Descending Minneapolis Center
Wed 02:30:07 PM 45.2033 -96.7228 58° Northeast 296 341 23,100 48 Climbing Minneapolis Center
Wed 02:31:10 PM 45.2475 -96.6267 57° Northeast 292 336 23,000 -48 Descending Minneapolis Center
Wed 02:32:12 PM 45.2911 -96.5364 56° Northeast 282 325 23,000 -48 Level Minneapolis Center
Wed 02:33:14 PM 45.3311 -96.4408 59° Northeast 280 322 22,900  Descending Minneapolis Center
Wed 02:34:16 PM 45.3719 -96.3497 57° Northeast 277 319 23,000 48 Climbing Minneapolis Center
Wed 02:35:18 PM 45.4158 -96.2608 55° Northeast 275 316 23,000 48 Level Minneapolis Center
Wed 02:36:20 PM 45.4692 -96.1536 55° Northeast 276 318 23,100 48 Climbing Minneapolis Center
Wed 02:37:22 PM 45.5228 -96.0711 47° Northeast 281 323 23,100 -48 Level Minneapolis Center
Wed 02:38:24 PM 45.5789 -95.9897 45° Northeast 286 329 23,000 -48 Descending Minneapolis Center
Wed 02:39:26 PM 45.6378 -95.9106 43° Northeast 290 334 23,000  Level Minneapolis Center
Wed 02:40:28 PM 45.6961 -95.8300 44° Northeast 291 335 23,000 -290 Level Minneapolis Center
Wed 02:41:30 PM 45.7414 -95.7375 55° Northeast 285 328 22,400 -871 Descending Minneapolis Center
Wed 02:42:32 PM 45.7783 -95.6192 66° East 272 313 21,200 -672 Descending Minneapolis Center
Wed 02:43:35 PM 45.8142 -95.5219 62° Northeast 274 315 21,000 -96 Descending Minneapolis Center
Wed 02:44:37 PM 45.8667 -95.4386 48° Northeast 281 323 21,000  Level Minneapolis Center
Wed 02:45:39 PM 45.9142 -95.3442 54° Northeast 289 333 21,000 48 Level Minneapolis Center
Wed 02:46:41 PM 45.9581 -95.2447 58° Northeast 294 338 21,100  Climbing Minneapolis Center
Wed 02:47:43 PM 45.9667 -95.1286 84° East 296 341 21,000 -48 Descending Minneapolis Center
Wed 02:48:45 PM 45.9417 -95.0117 107° East 299 344 21,000  Level Minneapolis Center
Wed 02:49:47 PM 45.9144 -94.8717 106° East 304 350 21,000 48 Level Minneapolis Center
Wed 02:50:49 PM 45.8975 -94.7561 102° East 300 345 21,100 -194 Climbing Minneapolis Center
Wed 02:51:51 PM 45.8731 -94.6414 107° East 300 345 20,600 -823 Descending Minneapolis Center
Wed 02:52:53 PM 45.8433 -94.5281 111° Southeast 303 349 19,400 -1,258 Descending Minneapolis Center
Wed 02:53:55 PM 45.8144 -94.4133 110° East 306 352 18,000 -1,742 Descending Minneapolis Center
Wed 02:54:57 PM 45.7819 -94.2753 109° East 306 352 15,800 -1,984 Descending Minneapolis Center
Wed 02:55:59 PM 45.7556 -94.1603 108° East 306 352 13,900 -1,680 Descending Minneapolis Center
Wed 02:57:02 PM 45.7294 -94.0497 109° East 299 344 12,300 -1,488 Descending Minneapolis Center
Wed 02:58:04 PM 45.6969 -93.9417 113° Southeast 299 344 10,800 -1,210 Descending Minneapolis Center
Wed 02:59:06 PM 45.6656 -93.8347 113° Southeast 294 338 9,800 -823 Descending Minneapolis Center
Wed 03:00:08 PM 45.6353 -93.7325 113° Southeast 284 327 9,100 -387 Descending Minneapolis Center
Wed 03:01:10 PM 45.6003 -93.6100 112° Southeast 280 322 9,000 -48 Descending Minneapolis Center
Wed 03:02:12 PM 45.5294 -93.5708 159° South 268 308 9,000  Level Minneapolis Center
Wed 03:03:14 PM 45.4581 -93.5403 163° South 269 310 9,000  Level Minneapolis Center
Wed 03:04:16 PM 45.3869 -93.5094 163° South 268 308 9,000  Level Minneapolis Center
Wed 03:05:18 PM 45.3172 -93.4708 159° South 271 312 9,000  Level Minneapolis Center
Wed 03:06:20 PM 45.2500 -93.4192 152° Southeast 274 315 9,000 -48 Level Minneapolis Center
Wed 03:07:22 PM 45.1664 -93.3997 171° South 252 290 8,900 -48 Descending Minneapolis Center
Wed 03:08:24 PM 45.1075 -93.3617 155° Southeast 233 268 8,900 -484 Level Minneapolis Center
Wed 03:09:26 PM 45.0503 -93.3208 153° Southeast 232 267 7,900 -435 Descending Minneapolis Center
Wed 03:10:28 PM 45.0025 -93.2608 138° Southeast 236 272 8,000 48 Climbing Minneapolis Center
Wed 03:11:30 PM 44.9753 -93.1703 113° Southeast 250 288 8,000 -532 Level Minneapolis Center
Wed 03:12:32 PM 44.9406 -93.0764 118° Southeast 266 306 6,900 -1,452 Descending Minneapolis Center
Wed 03:13:34 PM 44.8844 -93.0031 137° Southeast 246 283 5,000 -1,694 Descending Minneapolis Center
Wed 03:14:36 PM 44.8672 -93.0817 253° West 218 251 3,400 -1,500 Descending Minneapolis Center
Wed 03:15:38 PM 44.8700 -93.1475 273° West 173 199 1,900 -1,452 Descending Minneapolis Center
Wed 03:17:00 PM 44.8667 -93.2167 264° West  Level FlightAware Approximate
Wed 03:24:00 PM 44.8820 -93.2218 264° West  Level Estimated
Wed 03:25:00 PM 44.8820 -93.2218 264° West  Level Estimated

Login

Don't have an account? Register now (free) for customized features, flight alerts, and more!